sensor_id;sensor_type;location;lat;lon;timestamp;temperature;humidity
37642;DHT22;23486;51.956;5.888;2023-06-22T00:00:49;20.50;96.80
37642;DHT22;23486;51.956;5.888;2023-06-22T00:03:17;20.50;96.80
37642;DHT22;23486;51.956;5.888;2023-06-22T00:05:42;20.50;96.80
37642;DHT22;23486;51.956;5.888;2023-06-22T00:08:08;20.50;96.70
37642;DHT22;23486;51.956;5.888;2023-06-22T00:10:34;20.50;96.60
37642;DHT22;23486;51.956;5.888;2023-06-22T00:13:00;20.50;96.60
37642;DHT22;23486;51.956;5.888;2023-06-22T00:15:26;20.50;96.60
37642;DHT22;23486;51.956;5.888;2023-06-22T00:17:52;20.50;96.60
37642;DHT22;23486;51.956;5.888;2023-06-22T00:20:17;20.50;96.70
37642;DHT22;23486;51.956;5.888;2023-06-22T00:22:44;20.50;96.70
37642;DHT22;23486;51.956;5.888;2023-06-22T00:25:10;20.40;96.70
37642;DHT22;23486;51.956;5.888;2023-06-22T00:27:36;20.40;96.70
37642;DHT22;23486;51.956;5.888;2023-06-22T00:30:02;20.40;96.80
37642;DHT22;23486;51.956;5.888;2023-06-22T00:32:28;20.30;97.00
37642;DHT22;23486;51.956;5.888;2023-06-22T00:34:54;20.30;97.10
37642;DHT22;23486;51.956;5.888;2023-06-22T00:37:19;20.20;97.20
37642;DHT22;23486;51.956;5.888;2023-06-22T00:39:48;20.10;97.50
37642;DHT22;23486;51.956;5.888;2023-06-22T00:42:14;20.10;97.70
37642;DHT22;23486;51.956;5.888;2023-06-22T00:44:39;20.00;97.90
37642;DHT22;23486;51.956;5.888;2023-06-22T00:47:06;20.00;97.90
37642;DHT22;23486;51.956;5.888;2023-06-22T00:49:33;20.00;98.10
37642;DHT22;23486;51.956;5.888;2023-06-22T00:51:59;20.00;98.30
37642;DHT22;23486;51.956;5.888;2023-06-22T00:54:25;19.90;98.20
37642;DHT22;23486;51.956;5.888;2023-06-22T00:56:54;19.90;98.30
37642;DHT22;23486;51.956;5.888;2023-06-22T00:59:22;19.90;98.40
37642;DHT22;23486;51.956;5.888;2023-06-22T01:01:48;19.90;98.50
37642;DHT22;23486;51.956;5.888;2023-06-22T01:04:14;19.80;98.50
37642;DHT22;23486;51.956;5.888;2023-06-22T01:06:57;19.80;98.70
37642;DHT22;23486;51.956;5.888;2023-06-22T01:09:30;19.80;98.80
37642;DHT22;23486;51.956;5.888;2023-06-22T01:12:01;19.80;98.90
37642;DHT22;23486;51.956;5.888;2023-06-22T01:14:38;19.70;99.10
37642;DHT22;23486;51.956;5.888;2023-06-22T01:17:07;19.70;99.30
37642;DHT22;23486;51.956;5.888;2023-06-22T01:22:08;19.60;99.60
37642;DHT22;23486;51.956;5.888;2023-06-22T01:25:12;19.50;99.80
37642;DHT22;23486;51.956;5.888;2023-06-22T01:27:56;19.50;99.90
37642;DHT22;23486;51.956;5.888;2023-06-22T01:30:27;19.40;99.90
37642;DHT22;23486;51.956;5.888;2023-06-22T01:32:56;19.40;99.90
37642;DHT22;23486;51.956;5.888;2023-06-22T01:35:22;19.40;99.90
37642;DHT22;23486;51.956;5.888;2023-06-22T01:37:49;19.30;99.90
37642;DHT22;23486;51.956;5.888;2023-06-22T01:40:15;19.30;99.90
37642;DHT22;23486;51.956;5.888;2023-06-22T01:42:42;19.30;99.90
37642;DHT22;23486;51.956;5.888;2023-06-22T01:45:12;19.30;99.90
37642;DHT22;23486;51.956;5.888;2023-06-22T01:47:39;19.30;99.90
37642;DHT22;23486;51.956;5.888;2023-06-22T01:50:05;19.20;99.90
37642;DHT22;23486;51.956;5.888;2023-06-22T01:52:31;19.30;99.90
37642;DHT22;23486;51.956;5.888;2023-06-22T01:54:59;19.30;99.90
37642;DHT22;23486;51.956;5.888;2023-06-22T01:57:25;19.20;99.90
37642;DHT22;23486;51.956;5.888;2023-06-22T02:00:03;19.20;99.90
37642;DHT22;23486;51.956;5.888;2023-06-22T02:05:12;19.20;99.90
37642;DHT22;23486;51.956;5.888;2023-06-22T02:08:10;19.20;99.90
37642;DHT22;23486;51.956;5.888;2023-06-22T02:10:40;19.20;99.90
37642;DHT22;23486;51.956;5.888;2023-06-22T02:13:07;19.20;99.90
37642;DHT22;23486;51.956;5.888;2023-06-22T02:15:34;19.10;99.90
37642;DHT22;23486;51.956;5.888;2023-06-22T02:18:00;19.10;99.90
37642;DHT22;23486;51.956;5.888;2023-06-22T02:20:26;19.10;99.90
37642;DHT22;23486;51.956;5.888;2023-06-22T02:22:51;19.10;99.90
37642;DHT22;23486;51.956;5.888;2023-06-22T02:25:17;19.00;99.90
37642;DHT22;23486;51.956;5.888;2023-06-22T02:27:44;19.00;99.90
37642;DHT22;23486;51.956;5.888;2023-06-22T02:30:11;19.00;99.90
37642;DHT22;23486;51.956;5.888;2023-06-22T02:32:37;19.00;99.90
37642;DHT22;23486;51.956;5.888;2023-06-22T02:35:03;18.90;99.90
37642;DHT22;23486;51.956;5.888;2023-06-22T02:37:32;18.90;99.90
37642;DHT22;23486;51.956;5.888;2023-06-22T02:39:58;18.90;99.90
37642;DHT22;23486;51.956;5.888;2023-06-22T02:42:23;18.90;99.90
37642;DHT22;23486;51.956;5.888;2023-06-22T02:44:49;18.90;99.90
37642;DHT22;23486;51.956;5.888;2023-06-22T02:47:15;18.80;99.90
37642;DHT22;23486;51.956;5.888;2023-06-22T02:49:41;18.80;99.90
37642;DHT22;23486;51.956;5.888;2023-06-22T02:52:07;18.80;99.90
37642;DHT22;23486;51.956;5.888;2023-06-22T02:54:33;18.80;99.90
37642;DHT22;23486;51.956;5.888;2023-06-22T02:56:59;18.70;99.90
37642;DHT22;23486;51.956;5.888;2023-06-22T02:59:28;18.70;99.90
37642;DHT22;23486;51.956;5.888;2023-06-22T03:01:53;18.70;99.90
37642;DHT22;23486;51.956;5.888;2023-06-22T03:04:19;18.70;99.90
37642;DHT22;23486;51.956;5.888;2023-06-22T03:06:45;18.70;99.90
37642;DHT22;23486;51.956;5.888;2023-06-22T03:09:16;18.70;99.90
37642;DHT22;23486;51.956;5.888;2023-06-22T03:11:41;18.60;99.90
37642;DHT22;23486;51.956;5.888;2023-06-22T03:14:07;18.60;99.90
37642;DHT22;23486;51.956;5.888;2023-06-22T03:16:33;18.60;99.90
37642;DHT22;23486;51.956;5.888;2023-06-22T03:18:59;18.60;99.90
37642;DHT22;23486;51.956;5.888;2023-06-22T03:21:29;18.60;99.90
37642;DHT22;23486;51.956;5.888;2023-06-22T03:23:55;18.60;99.90
37642;DHT22;23486;51.956;5.888;2023-06-22T03:26:20;18.60;99.90
37642;DHT22;23486;51.956;5.888;2023-06-22T03:28:46;18.60;99.90
37642;DHT22;23486;51.956;5.888;2023-06-22T03:31:12;18.60;99.90
37642;DHT22;23486;51.956;5.888;2023-06-22T03:33:38;18.60;99.90
37642;DHT22;23486;51.956;5.888;2023-06-22T03:36:09;18.60;99.90
37642;DHT22;23486;51.956;5.888;2023-06-22T03:38:35;18.50;99.90
37642;DHT22;23486;51.956;5.888;2023-06-22T03:41:01;18.60;99.90
37642;DHT22;23486;51.956;5.888;2023-06-22T03:43:26;18.50;99.90
37642;DHT22;23486;51.956;5.888;2023-06-22T03:45:52;18.60;99.90
37642;DHT22;23486;51.956;5.888;2023-06-22T03:48:17;18.60;99.90
37642;DHT22;23486;51.956;5.888;2023-06-22T03:50:43;18.50;99.90
37642;DHT22;23486;51.956;5.888;2023-06-22T03:53:09;18.50;99.90
37642;DHT22;23486;51.956;5.888;2023-06-22T03:55:47;18.50;99.90
37642;DHT22;23486;51.956;5.888;2023-06-22T03:58:14;18.60;99.90
37642;DHT22;23486;51.956;5.888;2023-06-22T04:00:39;18.60;99.90
37642;DHT22;23486;51.956;5.888;2023-06-22T04:03:05;18.60;99.90
37642;DHT22;23486;51.956;5.888;2023-06-22T04:05:33;18.60;99.90
37642;DHT22;23486;51.956;5.888;2023-06-22T04:07:58;18.60;99.90
37642;DHT22;23486;51.956;5.888;2023-06-22T04:10:24;18.60;99.90
37642;DHT22;23486;51.956;5.888;2023-06-22T04:12:49;18.60;99.90
37642;DHT22;23486;51.956;5.888;2023-06-22T04:15:15;18.60;99.90
37642;DHT22;23486;51.956;5.888;2023-06-22T04:17:41;18.60;99.90
37642;DHT22;23486;51.956;5.888;2023-06-22T04:20:07;18.60;99.90
37642;DHT22;23486;51.956;5.888;2023-06-22T04:22:33;18.70;99.90
37642;DHT22;23486;51.956;5.888;2023-06-22T04:25:05;18.70;99.90
37642;DHT22;23486;51.956;5.888;2023-06-22T04:27:34;18.70;99.90
37642;DHT22;23486;51.956;5.888;2023-06-22T04:30:03;18.80;99.90
37642;DHT22;23486;51.956;5.888;2023-06-22T04:32:29;18.80;99.90
37642;DHT22;23486;51.956;5.888;2023-06-22T04:34:58;18.80;99.90
37642;DHT22;23486;51.956;5.888;2023-06-22T04:37:25;18.90;99.90
37642;DHT22;23486;51.956;5.888;2023-06-22T04:39:51;18.90;99.90
37642;DHT22;23486;51.956;5.888;2023-06-22T04:42:17;18.90;99.90
37642;DHT22;23486;51.956;5.888;2023-06-22T04:44:43;19.00;99.90
37642;DHT22;23486;51.956;5.888;2023-06-22T04:47:08;19.00;99.90
37642;DHT22;23486;51.956;5.888;2023-06-22T04:49:35;19.10;99.90
37642;DHT22;23486;51.956;5.888;2023-06-22T04:52:09;19.10;99.90
37642;DHT22;23486;51.956;5.888;2023-06-22T04:54:36;19.10;99.90
37642;DHT22;23486;51.956;5.888;2023-06-22T04:57:07;19.10;99.90
37642;DHT22;23486;51.956;5.888;2023-06-22T04:59:37;19.10;99.90
37642;DHT22;23486;51.956;5.888;2023-06-22T05:02:05;19.20;99.90
37642;DHT22;23486;51.956;5.888;2023-06-22T05:04:31;19.20;99.90
37642;DHT22;23486;51.956;5.888;2023-06-22T05:06:57;19.20;99.90
37642;DHT22;23486;51.956;5.888;2023-06-22T05:09:23;19.30;99.90
37642;DHT22;23486;51.956;5.888;2023-06-22T05:11:53;19.40;99.90
37642;DHT22;23486;51.956;5.888;2023-06-22T05:14:19;19.40;99.90
37642;DHT22;23486;51.956;5.888;2023-06-22T05:16:45;19.50;99.90
37642;DHT22;23486;51.956;5.888;2023-06-22T05:19:12;19.50;99.90
37642;DHT22;23486;51.956;5.888;2023-06-22T05:21:38;19.50;99.90
37642;DHT22;23486;51.956;5.888;2023-06-22T05:24:04;19.60;99.90
37642;DHT22;23486;51.956;5.888;2023-06-22T05:26:31;19.60;99.90
37642;DHT22;23486;51.956;5.888;2023-06-22T05:28:57;19.60;99.90
37642;DHT22;23486;51.956;5.888;2023-06-22T05:31:23;19.60;99.90
37642;DHT22;23486;51.956;5.888;2023-06-22T05:33:51;19.70;99.90
37642;DHT22;23486;51.956;5.888;2023-06-22T05:36:17;19.80;99.90
37642;DHT22;23486;51.956;5.888;2023-06-22T05:38:45;19.80;99.90
37642;DHT22;23486;51.956;5.888;2023-06-22T05:41:11;19.90;99.90
37642;DHT22;23486;51.956;5.888;2023-06-22T05:43:36;20.00;99.90
37642;DHT22;23486;51.956;5.888;2023-06-22T05:46:04;20.00;99.90
37642;DHT22;23486;51.956;5.888;2023-06-22T05:48:30;20.10;99.90
37642;DHT22;23486;51.956;5.888;2023-06-22T05:50:56;20.20;99.90
37642;DHT22;23486;51.956;5.888;2023-06-22T05:53:21;20.30;99.90
37642;DHT22;23486;51.956;5.888;2023-06-22T05:55:47;20.30;99.90
37642;DHT22;23486;51.956;5.888;2023-06-22T05:58:13;20.30;99.90
37642;DHT22;23486;51.956;5.888;2023-06-22T06:00:39;20.40;99.90
37642;DHT22;23486;51.956;5.888;2023-06-22T06:03:05;20.40;99.90
37642;DHT22;23486;51.956;5.888;2023-06-22T06:05:34;20.50;99.90
37642;DHT22;23486;51.956;5.888;2023-06-22T06:08:01;20.60;99.90
37642;DHT22;23486;51.956;5.888;2023-06-22T06:10:27;20.70;99.90
37642;DHT22;23486;51.956;5.888;2023-06-22T06:12:55;20.70;99.90
37642;DHT22;23486;51.956;5.888;2023-06-22T06:15:21;20.80;99.90
37642;DHT22;23486;51.956;5.888;2023-06-22T06:17:52;20.80;99.90
37642;DHT22;23486;51.956;5.888;2023-06-22T06:20:19;20.90;99.90
37642;DHT22;23486;51.956;5.888;2023-06-22T06:22:45;20.90;99.90
37642;DHT22;23486;51.956;5.888;2023-06-22T06:25:11;21.00;99.90
37642;DHT22;23486;51.956;5.888;2023-06-22T06:27:45;21.00;99.90
37642;DHT22;23486;51.956;5.888;2023-06-22T06:32:45;21.10;99.90
37642;DHT22;23486;51.956;5.888;2023-06-22T06:35:13;21.20;99.90
37642;DHT22;23486;51.956;5.888;2023-06-22T06:37:41;21.20;99.90
37642;DHT22;23486;51.956;5.888;2023-06-22T06:40:08;21.30;99.90
37642;DHT22;23486;51.956;5.888;2023-06-22T06:42:43;21.40;99.90
37642;DHT22;23486;51.956;5.888;2023-06-22T06:45:16;21.50;99.90
37642;DHT22;23486;51.956;5.888;2023-06-22T06:47:42;21.60;99.90
37642;DHT22;23486;51.956;5.888;2023-06-22T06:50:08;21.60;99.90
37642;DHT22;23486;51.956;5.888;2023-06-22T06:52:35;21.60;99.90
37642;DHT22;23486;51.956;5.888;2023-06-22T06:55:01;21.70;99.90
37642;DHT22;23486;51.956;5.888;2023-06-22T06:57:28;21.70;99.90
37642;DHT22;23486;51.956;5.888;2023-06-22T06:59:57;21.80;99.90
37642;DHT22;23486;51.956;5.888;2023-06-22T07:02:24;21.90;99.90
37642;DHT22;23486;51.956;5.888;2023-06-22T07:04:49;22.00;99.90
37642;DHT22;23486;51.956;5.888;2023-06-22T07:07:16;22.00;99.90
37642;DHT22;23486;51.956;5.888;2023-06-22T07:09:44;22.10;99.90
37642;DHT22;23486;51.956;5.888;2023-06-22T07:12:10;22.10;99.90
37642;DHT22;23486;51.956;5.888;2023-06-22T07:14:35;22.10;99.90
37642;DHT22;23486;51.956;5.888;2023-06-22T07:17:01;22.00;99.90
37642;DHT22;23486;51.956;5.888;2023-06-22T07:19:28;22.00;99.90
37642;DHT22;23486;51.956;5.888;2023-06-22T07:21:57;22.10;99.90
37642;DHT22;23486;51.956;5.888;2023-06-22T07:24:24;22.10;99.90
37642;DHT22;23486;51.956;5.888;2023-06-22T07:26:51;22.30;99.90
37642;DHT22;23486;51.956;5.888;2023-06-22T07:29:17;22.30;99.90
37642;DHT22;23486;51.956;5.888;2023-06-22T07:31:44;22.40;99.90
37642;DHT22;23486;51.956;5.888;2023-06-22T07:34:11;22.40;99.90
37642;DHT22;23486;51.956;5.888;2023-06-22T07:39:05;22.50;99.90
37642;DHT22;23486;51.956;5.888;2023-06-22T07:41:34;22.60;99.90
37642;DHT22;23486;51.956;5.888;2023-06-22T07:43:59;22.70;99.90
37642;DHT22;23486;51.956;5.888;2023-06-22T07:46:25;22.80;99.90
37642;DHT22;23486;51.956;5.888;2023-06-22T07:48:51;22.90;99.90
37642;DHT22;23486;51.956;5.888;2023-06-22T07:51:17;23.00;99.90
37642;DHT22;23486;51.956;5.888;2023-06-22T07:53:43;23.10;99.90
37642;DHT22;23486;51.956;5.888;2023-06-22T07:56:13;23.20;99.90
37642;DHT22;23486;51.956;5.888;2023-06-22T07:58:39;23.30;99.90
37642;DHT22;23486;51.956;5.888;2023-06-22T08:01:05;23.30;99.90
37642;DHT22;23486;51.956;5.888;2023-06-22T08:03:31;23.40;99.90
37642;DHT22;23486;51.956;5.888;2023-06-22T08:05:57;23.50;99.90
37642;DHT22;23486;51.956;5.888;2023-06-22T08:08:23;23.60;99.90
37642;DHT22;23486;51.956;5.888;2023-06-22T08:10:49;23.60;99.90
37642;DHT22;23486;51.956;5.888;2023-06-22T08:13:14;23.80;99.90
37642;DHT22;23486;51.956;5.888;2023-06-22T08:15:40;23.80;99.90
37642;DHT22;23486;51.956;5.888;2023-06-22T08:18:07;23.80;99.90
37642;DHT22;23486;51.956;5.888;2023-06-22T08:20:32;23.90;99.90
37642;DHT22;23486;51.956;5.888;2023-06-22T08:22:58;23.90;99.90
37642;DHT22;23486;51.956;5.888;2023-06-22T08:25:30;24.00;99.90
37642;DHT22;23486;51.956;5.888;2023-06-22T08:27:56;24.00;99.90
37642;DHT22;23486;51.956;5.888;2023-06-22T08:30:22;24.00;99.80
37642;DHT22;23486;51.956;5.888;2023-06-22T08:32:47;23.90;99.50
37642;DHT22;23486;51.956;5.888;2023-06-22T08:35:14;23.90;99.20
37642;DHT22;23486;51.956;5.888;2023-06-22T08:37:40;23.90;98.30
37642;DHT22;23486;51.956;5.888;2023-06-22T08:40:08;23.90;98.70
37642;DHT22;23486;51.956;5.888;2023-06-22T08:42:40;24.10;98.70
37642;DHT22;23486;51.956;5.888;2023-06-22T08:45:06;24.30;98.80
37642;DHT22;23486;51.956;5.888;2023-06-22T08:47:32;24.50;98.60
37642;DHT22;23486;51.956;5.888;2023-06-22T08:49:58;24.70;98.50
37642;DHT22;23486;51.956;5.888;2023-06-22T08:52:24;24.80;98.40
37642;DHT22;23486;51.956;5.888;2023-06-22T08:54:49;24.80;97.60
37642;DHT22;23486;51.956;5.888;2023-06-22T08:57:16;24.80;97.00
37642;DHT22;23486;51.956;5.888;2023-06-22T08:59:42;24.80;96.90
37642;DHT22;23486;51.956;5.888;2023-06-22T09:02:07;24.90;96.90
37642;DHT22;23486;51.956;5.888;2023-06-22T09:04:33;24.90;97.00
37642;DHT22;23486;51.956;5.888;2023-06-22T09:07:02;25.00;96.90
37642;DHT22;23486;51.956;5.888;2023-06-22T09:09:28;25.00;96.60
37642;DHT22;23486;51.956;5.888;2023-06-22T09:11:53;25.00;96.50
37642;DHT22;23486;51.956;5.888;2023-06-22T09:14:22;25.20;96.50
37642;DHT22;23486;51.956;5.888;2023-06-22T09:16:48;25.40;96.20
37642;DHT22;23486;51.956;5.888;2023-06-22T09:19:13;25.50;95.70
37642;DHT22;23486;51.956;5.888;2023-06-22T09:21:39;25.50;95.40
37642;DHT22;23486;51.956;5.888;2023-06-22T09:24:04;25.60;95.10
37642;DHT22;23486;51.956;5.888;2023-06-22T09:26:30;25.70;95.20
37642;DHT22;23486;51.956;5.888;2023-06-22T09:28:56;25.70;94.80
37642;DHT22;23486;51.956;5.888;2023-06-22T09:31:21;25.70;94.50
37642;DHT22;23486;51.956;5.888;2023-06-22T09:33:54;25.70;94.20
37642;DHT22;23486;51.956;5.888;2023-06-22T09:36:23;25.70;93.70
37642;DHT22;23486;51.956;5.888;2023-06-22T09:38:49;25.70;93.70
37642;DHT22;23486;51.956;5.888;2023-06-22T09:41:20;25.70;93.90
37642;DHT22;23486;51.956;5.888;2023-06-22T09:43:46;25.80;93.40
37642;DHT22;23486;51.956;5.888;2023-06-22T09:46:11;25.70;92.40
37642;DHT22;23486;51.956;5.888;2023-06-22T09:48:37;25.40;91.90
37642;DHT22;23486;51.956;5.888;2023-06-22T09:51:03;25.30;91.70
37642;DHT22;23486;51.956;5.888;2023-06-22T09:53:28;25.20;92.10
37642;DHT22;23486;51.956;5.888;2023-06-22T09:55:54;25.20;92.10
37642;DHT22;23486;51.956;5.888;2023-06-22T09:58:19;25.30;91.90
37642;DHT22;23486;51.956;5.888;2023-06-22T10:00:45;25.30;91.60
37642;DHT22;23486;51.956;5.888;2023-06-22T10:03:10;25.20;91.50
37642;DHT22;23486;51.956;5.888;2023-06-22T10:05:36;25.20;91.30
37642;DHT22;23486;51.956;5.888;2023-06-22T10:08:02;25.10;91.00
37642;DHT22;23486;51.956;5.888;2023-06-22T10:10:28;25.00;91.20
37642;DHT22;23486;51.956;5.888;2023-06-22T10:13:09;24.90;91.10
37642;DHT22;23486;51.956;5.888;2023-06-22T10:15:38;24.90;91.60
37642;DHT22;23486;51.956;5.888;2023-06-22T10:18:04;24.80;91.10
37642;DHT22;23486;51.956;5.888;2023-06-22T10:20:30;24.80;91.20
37642;DHT22;23486;51.956;5.888;2023-06-22T10:22:56;24.80;91.30
37642;DHT22;23486;51.956;5.888;2023-06-22T10:25:21;24.70;91.30
37642;DHT22;23486;51.956;5.888;2023-06-22T10:27:47;24.70;91.40
37642;DHT22;23486;51.956;5.888;2023-06-22T10:30:13;24.70;91.50
37642;DHT22;23486;51.956;5.888;2023-06-22T10:32:42;24.80;91.70
37642;DHT22;23486;51.956;5.888;2023-06-22T10:35:09;24.90;91.40
37642;DHT22;23486;51.956;5.888;2023-06-22T10:37:44;24.90;91.50
37642;DHT22;23486;51.956;5.888;2023-06-22T10:40:13;24.90;91.70
37642;DHT22;23486;51.956;5.888;2023-06-22T10:42:40;25.00;91.60
37642;DHT22;23486;51.956;5.888;2023-06-22T10:45:06;25.00;91.50
37642;DHT22;23486;51.956;5.888;2023-06-22T10:47:32;25.10;91.50
37642;DHT22;23486;51.956;5.888;2023-06-22T10:49:58;25.10;90.90
37642;DHT22;23486;51.956;5.888;2023-06-22T10:52:23;25.10;91.10
37642;DHT22;23486;51.956;5.888;2023-06-22T10:54:49;25.10;91.30
37642;DHT22;23486;51.956;5.888;2023-06-22T10:57:14;25.10;91.20
37642;DHT22;23486;51.956;5.888;2023-06-22T10:59:40;25.10;91.40
37642;DHT22;23486;51.956;5.888;2023-06-22T11:02:06;25.20;91.60
37642;DHT22;23486;51.956;5.888;2023-06-22T11:04:31;25.20;91.60
37642;DHT22;23486;51.956;5.888;2023-06-22T11:06:57;25.20;91.50
37642;DHT22;23486;51.956;5.888;2023-06-22T11:09:23;25.20;91.30
37642;DHT22;23486;51.956;5.888;2023-06-22T11:11:51;25.10;91.10
37642;DHT22;23486;51.956;5.888;2023-06-22T11:14:18;25.10;91.40
37642;DHT22;23486;51.956;5.888;2023-06-22T11:16:44;25.10;91.40
37642;DHT22;23486;51.956;5.888;2023-06-22T11:19:11;25.10;91.30
37642;DHT22;23486;51.956;5.888;2023-06-22T11:21:37;25.10;91.30
37642;DHT22;23486;51.956;5.888;2023-06-22T11:24:03;25.10;91.10
37642;DHT22;23486;51.956;5.888;2023-06-22T11:26:28;24.90;91.20
37642;DHT22;23486;51.956;5.888;2023-06-22T11:28:54;24.80;91.60
37642;DHT22;23486;51.956;5.888;2023-06-22T11:31:20;24.70;91.90
37642;DHT22;23486;51.956;5.888;2023-06-22T11:33:45;24.60;92.40
37642;DHT22;23486;51.956;5.888;2023-06-22T11:36:12;24.50;92.70
37642;DHT22;23486;51.956;5.888;2023-06-22T11:38:38;24.40;93.40
37642;DHT22;23486;51.956;5.888;2023-06-22T11:41:06;24.30;93.60
37642;DHT22;23486;51.956;5.888;2023-06-22T11:43:32;24.20;94.00
37642;DHT22;23486;51.956;5.888;2023-06-22T11:45:57;24.00;94.30
37642;DHT22;23486;51.956;5.888;2023-06-22T11:48:26;23.80;94.70
37642;DHT22;23486;51.956;5.888;2023-06-22T11:50:52;23.70;95.30
37642;DHT22;23486;51.956;5.888;2023-06-22T11:53:18;23.60;95.70
37642;DHT22;23486;51.956;5.888;2023-06-22T11:55:46;23.50;96.00
37642;DHT22;23486;51.956;5.888;2023-06-22T11:58:12;23.20;96.80
37642;DHT22;23486;51.956;5.888;2023-06-22T12:00:38;22.80;97.90
37642;DHT22;23486;51.956;5.888;2023-06-22T12:03:04;22.40;99.00
37642;DHT22;23486;51.956;5.888;2023-06-22T12:05:29;22.10;99.90
37642;DHT22;23486;51.956;5.888;2023-06-22T12:07:55;21.80;99.90
37642;DHT22;23486;51.956;5.888;2023-06-22T12:10:22;21.60;99.90
37642;DHT22;23486;51.956;5.888;2023-06-22T12:12:48;21.50;99.90
37642;DHT22;23486;51.956;5.888;2023-06-22T12:15:14;21.30;99.90
37642;DHT22;23486;51.956;5.888;2023-06-22T12:17:40;21.00;99.90
37642;DHT22;23486;51.956;5.888;2023-06-22T12:20:06;20.90;99.90
37642;DHT22;23486;51.956;5.888;2023-06-22T12:22:33;20.80;99.90
37642;DHT22;23486;51.956;5.888;2023-06-22T12:24:58;20.70;99.90
37642;DHT22;23486;51.956;5.888;2023-06-22T12:27:25;20.70;99.90
37642;DHT22;23486;51.956;5.888;2023-06-22T12:29:51;20.80;99.90
37642;DHT22;23486;51.956;5.888;2023-06-22T12:32:16;20.80;99.90
37642;DHT22;23486;51.956;5.888;2023-06-22T12:34:43;20.80;99.90
37642;DHT22;23486;51.956;5.888;2023-06-22T12:37:09;20.90;99.90
37642;DHT22;23486;51.956;5.888;2023-06-22T12:39:35;20.90;99.90
37642;DHT22;23486;51.956;5.888;2023-06-22T12:42:01;21.00;99.90
37642;DHT22;23486;51.956;5.888;2023-06-22T12:44:26;21.10;99.90
37642;DHT22;23486;51.956;5.888;2023-06-22T12:46:52;21.00;99.90
37642;DHT22;23486;51.956;5.888;2023-06-22T12:49:18;20.80;99.90
37642;DHT22;23486;51.956;5.888;2023-06-22T12:51:44;20.80;99.90
37642;DHT22;23486;51.956;5.888;2023-06-22T12:54:10;20.70;99.90
37642;DHT22;23486;51.956;5.888;2023-06-22T12:56:37;20.60;99.90
37642;DHT22;23486;51.956;5.888;2023-06-22T12:59:03;20.60;99.90
37642;DHT22;23486;51.956;5.888;2023-06-22T13:01:29;20.50;99.90
37642;DHT22;23486;51.956;5.888;2023-06-22T13:03:58;20.30;99.90
37642;DHT22;23486;51.956;5.888;2023-06-22T13:06:24;20.20;99.90
37642;DHT22;23486;51.956;5.888;2023-06-22T13:08:50;20.20;99.90
37642;DHT22;23486;51.956;5.888;2023-06-22T13:11:16;20.20;99.90
37642;DHT22;23486;51.956;5.888;2023-06-22T13:13:42;20.10;99.90
37642;DHT22;23486;51.956;5.888;2023-06-22T13:16:07;20.00;99.90
37642;DHT22;23486;51.956;5.888;2023-06-22T13:18:33;19.90;99.90
37642;DHT22;23486;51.956;5.888;2023-06-22T13:21:01;19.80;99.90
37642;DHT22;23486;51.956;5.888;2023-06-22T13:23:27;19.70;99.90
37642;DHT22;23486;51.956;5.888;2023-06-22T13:25:52;19.70;99.90
37642;DHT22;23486;51.956;5.888;2023-06-22T13:28:18;19.60;99.90
37642;DHT22;23486;51.956;5.888;2023-06-22T13:30:44;19.60;99.90
37642;DHT22;23486;51.956;5.888;2023-06-22T13:33:12;19.60;99.90
37642;DHT22;23486;51.956;5.888;2023-06-22T13:35:38;19.50;99.90
37642;DHT22;23486;51.956;5.888;2023-06-22T13:38:04;19.40;99.90
37642;DHT22;23486;51.956;5.888;2023-06-22T13:40:36;19.30;99.90
37642;DHT22;23486;51.956;5.888;2023-06-22T13:43:03;19.10;99.90
37642;DHT22;23486;51.956;5.888;2023-06-22T13:45:29;19.10;99.90
37642;DHT22;23486;51.956;5.888;2023-06-22T13:47:55;19.10;99.90
37642;DHT22;23486;51.956;5.888;2023-06-22T13:50:20;19.00;99.90
37642;DHT22;23486;51.956;5.888;2023-06-22T13:52:46;19.00;99.90
37642;DHT22;23486;51.956;5.888;2023-06-22T13:55:11;19.00;99.90
37642;DHT22;23486;51.956;5.888;2023-06-22T13:57:39;19.00;99.90
37642;DHT22;23486;51.956;5.888;2023-06-22T14:00:05;19.00;99.90
37642;DHT22;23486;51.956;5.888;2023-06-22T14:02:31;19.00;99.90
37642;DHT22;23486;51.956;5.888;2023-06-22T14:04:57;19.10;99.90
37642;DHT22;23486;51.956;5.888;2023-06-22T14:07:22;19.10;99.90
37642;DHT22;23486;51.956;5.888;2023-06-22T14:09:52;19.10;99.90
37642;DHT22;23486;51.956;5.888;2023-06-22T14:12:18;19.10;99.90
37642;DHT22;23486;51.956;5.888;2023-06-22T14:14:43;19.10;99.90
37642;DHT22;23486;51.956;5.888;2023-06-22T14:17:09;19.10;99.90
37642;DHT22;23486;51.956;5.888;2023-06-22T14:19:35;19.10;99.90
37642;DHT22;23486;51.956;5.888;2023-06-22T14:22:00;19.10;99.90
37642;DHT22;23486;51.956;5.888;2023-06-22T14:24:26;19.10;99.90
37642;DHT22;23486;51.956;5.888;2023-06-22T14:26:52;19.10;99.90
37642;DHT22;23486;51.956;5.888;2023-06-22T14:29:24;19.10;99.90
37642;DHT22;23486;51.956;5.888;2023-06-22T14:31:50;19.10;99.90
37642;DHT22;23486;51.956;5.888;2023-06-22T14:34:16;19.10;99.90
37642;DHT22;23486;51.956;5.888;2023-06-22T14:36:42;19.10;99.90
37642;DHT22;23486;51.956;5.888;2023-06-22T14:39:08;19.00;99.90
37642;DHT22;23486;51.956;5.888;2023-06-22T14:41:34;19.00;99.90
37642;DHT22;23486;51.956;5.888;2023-06-22T14:44:00;18.90;99.90
37642;DHT22;23486;51.956;5.888;2023-06-22T14:46:25;18.90;99.90
37642;DHT22;23486;51.956;5.888;2023-06-22T14:48:51;18.90;99.90
37642;DHT22;23486;51.956;5.888;2023-06-22T14:51:17;18.90;99.90
37642;DHT22;23486;51.956;5.888;2023-06-22T14:53:44;18.90;99.90
37642;DHT22;23486;51.956;5.888;2023-06-22T14:56:09;18.90;99.90
37642;DHT22;23486;51.956;5.888;2023-06-22T14:58:35;18.90;99.90
37642;DHT22;23486;51.956;5.888;2023-06-22T15:01:04;18.90;99.90
37642;DHT22;23486;51.956;5.888;2023-06-22T15:03:34;18.90;99.90
37642;DHT22;23486;51.956;5.888;2023-06-22T15:06:01;18.90;99.90
37642;DHT22;23486;51.956;5.888;2023-06-22T15:08:27;18.70;99.90
37642;DHT22;23486;51.956;5.888;2023-06-22T15:10:53;18.60;99.90
37642;DHT22;23486;51.956;5.888;2023-06-22T15:13:19;18.50;99.90
37642;DHT22;23486;51.956;5.888;2023-06-22T15:15:46;18.50;99.90
37642;DHT22;23486;51.956;5.888;2023-06-22T15:18:16;18.40;99.90
37642;DHT22;23486;51.956;5.888;2023-06-22T15:20:42;18.40;99.90
37642;DHT22;23486;51.956;5.888;2023-06-22T15:23:11;18.30;99.90
37642;DHT22;23486;51.956;5.888;2023-06-22T15:25:37;18.30;99.90
37642;DHT22;23486;51.956;5.888;2023-06-22T15:28:03;18.20;99.90
37642;DHT22;23486;51.956;5.888;2023-06-22T15:30:28;18.20;99.90
37642;DHT22;23486;51.956;5.888;2023-06-22T15:32:54;18.20;99.90
37642;DHT22;23486;51.956;5.888;2023-06-22T15:35:20;18.20;99.90
37642;DHT22;23486;51.956;5.888;2023-06-22T15:37:46;18.20;99.90